sensor_id;sensor_type;location;lat;lon;timestamp;pressure;altitude;pressure_sealevel;temperature;humidity
30383;BME280;17179;48.022;7.858;2022-09-02T00:00:20;98648.69;;;18.12;45.29
30383;BME280;17179;48.022;7.858;2022-09-02T00:02:48;98643.84;;;18.09;45.36
30383;BME280;17179;48.022;7.858;2022-09-02T00:05:13;98647.28;;;18.01;45.27
30383;BME280;17179;48.022;7.858;2022-09-02T00:07:39;98646.28;;;17.97;45.53
30383;BME280;17179;48.022;7.858;2022-09-02T00:10:04;98645.06;;;17.89;44.63
30383;BME280;17179;48.022;7.858;2022-09-02T00:12:30;98645.19;;;17.84;45.50
30383;BME280;17179;48.022;7.858;2022-09-02T00:14:55;98648.81;;;17.79;45.36
30383;BME280;17179;48.022;7.858;2022-09-02T00:17:20;98651.66;;;17.74;45.55
30383;BME280;17179;48.022;7.858;2022-09-02T00:19:46;98647.41;;;17.67;45.80
30383;BME280;17179;48.022;7.858;2022-09-02T00:22:11;98646.38;;;17.63;46.17
30383;BME280;17179;48.022;7.858;2022-09-02T00:24:36;98644.22;;;17.60;46.29
30383;BME280;17179;48.022;7.858;2022-09-02T00:27:02;98648.19;;;17.54;46.35
30383;BME280;17179;48.022;7.858;2022-09-02T00:29:28;98648.25;;;17.49;45.95
30383;BME280;17179;48.022;7.858;2022-09-02T00:31:54;98653.84;;;17.43;46.45
30383;BME280;17179;48.022;7.858;2022-09-02T00:34:20;98653.94;;;17.38;46.78
30383;BME280;17179;48.022;7.858;2022-09-02T00:36:45;98649.97;;;17.30;46.47
30383;BME280;17179;48.022;7.858;2022-09-02T00:39:11;98646.53;;;17.25;47.43
30383;BME280;17179;48.022;7.858;2022-09-02T00:41:38;98649.84;;;17.22;47.11
30383;BME280;17179;48.022;7.858;2022-09-02T00:44:07;98642.25;;;17.18;46.80
30383;BME280;17179;48.022;7.858;2022-09-02T00:46:34;98641.81;;;17.11;46.86
30383;BME280;17179;48.022;7.858;2022-09-02T00:51:32;98643.31;;;17.03;46.54
30383;BME280;17179;48.022;7.858;2022-09-02T00:53:58;98638.00;;;16.93;47.38
30383;BME280;17179;48.022;7.858;2022-09-02T00:56:27;98639.72;;;16.89;47.03
30383;BME280;17179;48.022;7.858;2022-09-02T00:58:54;98641.44;;;16.84;46.81
30383;BME280;17179;48.022;7.858;2022-09-02T01:01:21;98646.94;;;16.79;47.94
30383;BME280;17179;48.022;7.858;2022-09-02T01:03:48;98651.66;;;16.73;48.03
30383;BME280;17179;48.022;7.858;2022-09-02T01:06:13;98633.47;;;16.69;47.39
30383;BME280;17179;48.022;7.858;2022-09-02T01:08:42;98637.78;;;16.70;48.17
30383;BME280;17179;48.022;7.858;2022-09-02T01:11:09;98638.97;;;16.64;47.83
30383;BME280;17179;48.022;7.858;2022-09-02T01:13:41;98634.84;;;16.66;47.25
30383;BME280;17179;48.022;7.858;2022-09-02T01:18:32;98634.94;;;16.61;47.42
30383;BME280;17179;48.022;7.858;2022-09-02T01:21:01;98633.38;;;16.55;47.99
30383;BME280;17179;48.022;7.858;2022-09-02T01:23:28;98632.34;;;16.51;47.96
30383;BME280;17179;48.022;7.858;2022-09-02T01:25:54;98626.16;;;16.45;48.20
30383;BME280;17179;48.022;7.858;2022-09-02T01:28:20;98625.63;;;16.43;47.65
30383;BME280;17179;48.022;7.858;2022-09-02T01:30:48;98629.78;;;16.40;47.70
30383;BME280;17179;48.022;7.858;2022-09-02T01:33:15;98627.09;;;16.35;48.16
30383;BME280;17179;48.022;7.858;2022-09-02T01:35:41;98626.88;;;16.31;49.00
30383;BME280;17179;48.022;7.858;2022-09-02T01:38:07;98620.16;;;16.23;48.62
30383;BME280;17179;48.022;7.858;2022-09-02T01:40:33;98618.03;;;16.20;49.07
30383;BME280;17179;48.022;7.858;2022-09-02T01:43:04;98620.75;;;16.20;48.90
30383;BME280;17179;48.022;7.858;2022-09-02T01:45:33;98615.97;;;16.12;48.75
30383;BME280;17179;48.022;7.858;2022-09-02T01:47:58;98618.47;;;16.08;49.04
30383;BME280;17179;48.022;7.858;2022-09-02T01:50:24;98612.78;;;16.05;48.47
30383;BME280;17179;48.022;7.858;2022-09-02T01:52:49;98614.47;;;16.00;48.93
30383;BME280;17179;48.022;7.858;2022-09-02T01:55:14;98615.34;;;15.96;49.34
30383;BME280;17179;48.022;7.858;2022-09-02T01:57:40;98604.19;;;15.92;48.98
30383;BME280;17179;48.022;7.858;2022-09-02T02:00:07;98613.47;;;15.91;49.13
30383;BME280;17179;48.022;7.858;2022-09-02T02:02:33;98613.84;;;15.84;49.54
30383;BME280;17179;48.022;7.858;2022-09-02T02:04:58;98599.97;;;15.81;48.50
30383;BME280;17179;48.022;7.858;2022-09-02T02:07:24;98602.19;;;15.78;48.51
30383;BME280;17179;48.022;7.858;2022-09-02T02:09:49;98610.91;;;15.75;48.47
30383;BME280;17179;48.022;7.858;2022-09-02T02:12:15;98605.25;;;15.72;48.90
30383;BME280;17179;48.022;7.858;2022-09-02T02:14:41;98617.56;;;15.69;48.65
30383;BME280;17179;48.022;7.858;2022-09-02T02:17:06;98608.03;;;15.66;48.94
30383;BME280;17179;48.022;7.858;2022-09-02T02:19:34;98618.13;;;15.66;48.19
30383;BME280;17179;48.022;7.858;2022-09-02T02:21:59;98608.38;;;15.60;49.19
30383;BME280;17179;48.022;7.858;2022-09-02T02:24:25;98606.75;;;15.59;48.83
30383;BME280;17179;48.022;7.858;2022-09-02T02:26:51;98608.13;;;15.56;49.25
30383;BME280;17179;48.022;7.858;2022-09-02T02:29:16;98613.06;;;15.54;49.34
30383;BME280;17179;48.022;7.858;2022-09-02T02:31:42;98608.19;;;15.51;49.30
30383;BME280;17179;48.022;7.858;2022-09-02T02:34:08;98613.94;;;15.49;49.39
30383;BME280;17179;48.022;7.858;2022-09-02T02:36:35;98600.63;;;15.48;49.72
30383;BME280;17179;48.022;7.858;2022-09-02T02:39:00;98614.00;;;15.44;49.60
30383;BME280;17179;48.022;7.858;2022-09-02T02:41:26;98616.22;;;15.42;49.22
30383;BME280;17179;48.022;7.858;2022-09-02T02:43:52;98609.72;;;15.38;49.23
30383;BME280;17179;48.022;7.858;2022-09-02T02:46:17;98605.09;;;15.33;49.39
30383;BME280;17179;48.022;7.858;2022-09-02T02:48:43;98606.53;;;15.30;49.90
30383;BME280;17179;48.022;7.858;2022-09-02T02:51:09;98614.16;;;15.28;48.95
30383;BME280;17179;48.022;7.858;2022-09-02T02:53:34;98604.66;;;15.26;49.76
30383;BME280;17179;48.022;7.858;2022-09-02T02:56:01;98605.22;;;15.23;49.54
30383;BME280;17179;48.022;7.858;2022-09-02T02:58:27;98606.59;;;15.20;49.96
30383;BME280;17179;48.022;7.858;2022-09-02T03:00:56;98602.53;;;15.17;50.01
30383;BME280;17179;48.022;7.858;2022-09-02T03:03:21;98609.38;;;15.15;49.87
30383;BME280;17179;48.022;7.858;2022-09-02T03:05:48;98606.13;;;15.13;49.52
30383;BME280;17179;48.022;7.858;2022-09-02T03:08:16;98608.03;;;15.12;50.11
30383;BME280;17179;48.022;7.858;2022-09-02T03:10:46;98616.78;;;15.09;49.11
30383;BME280;17179;48.022;7.858;2022-09-02T03:13:12;98611.09;;;15.05;49.41
30383;BME280;17179;48.022;7.858;2022-09-02T03:15:40;98613.28;;;15.03;48.91
30383;BME280;17179;48.022;7.858;2022-09-02T03:18:06;98613.81;;;15.00;49.83
30383;BME280;17179;48.022;7.858;2022-09-02T03:20:31;98617.66;;;14.99;49.26
30383;BME280;17179;48.022;7.858;2022-09-02T03:22:58;98616.59;;;14.95;49.48
30383;BME280;17179;48.022;7.858;2022-09-02T03:25:24;98623.44;;;14.92;48.42
30383;BME280;17179;48.022;7.858;2022-09-02T03:27:50;98611.22;;;14.90;49.36
30383;BME280;17179;48.022;7.858;2022-09-02T03:30:19;98617.19;;;14.92;49.48
30383;BME280;17179;48.022;7.858;2022-09-02T03:32:45;98610.97;;;14.86;49.57
30383;BME280;17179;48.022;7.858;2022-09-02T03:35:13;98610.97;;;14.86;49.45
30383;BME280;17179;48.022;7.858;2022-09-02T03:37:39;98606.38;;;14.81;48.51
30383;BME280;17179;48.022;7.858;2022-09-02T03:40:08;98606.06;;;14.83;48.75
30383;BME280;17179;48.022;7.858;2022-09-02T03:42:34;98609.66;;;14.78;49.10
30383;BME280;17179;48.022;7.858;2022-09-02T03:44:59;98605.31;;;14.77;49.45
30383;BME280;17179;48.022;7.858;2022-09-02T03:47:25;98600.97;;;14.76;48.64
30383;BME280;17179;48.022;7.858;2022-09-02T03:49:53;98607.78;;;14.73;46.89
30383;BME280;17179;48.022;7.858;2022-09-02T03:52:18;98608.06;;;14.72;48.39
30383;BME280;17179;48.022;7.858;2022-09-02T03:54:44;98611.09;;;14.70;48.81
30383;BME280;17179;48.022;7.858;2022-09-02T03:57:09;98608.38;;;14.70;48.92
30383;BME280;17179;48.022;7.858;2022-09-02T03:59:35;98614.88;;;14.69;49.43
30383;BME280;17179;48.022;7.858;2022-09-02T04:02:01;98610.84;;;14.67;49.57
30383;BME280;17179;48.022;7.858;2022-09-02T04:04:28;98609.19;;;14.66;49.12
30383;BME280;17179;48.022;7.858;2022-09-02T04:06:53;98604.88;;;14.65;49.18
30383;BME280;17179;48.022;7.858;2022-09-02T04:09:19;98607.34;;;14.61;48.04
30383;BME280;17179;48.022;7.858;2022-09-02T04:11:44;98609.53;;;14.59;48.80
30383;BME280;17179;48.022;7.858;2022-09-02T04:14:10;98598.94;;;14.57;48.62
30383;BME280;17179;48.022;7.858;2022-09-02T04:16:35;98606.03;;;14.53;48.55
30383;BME280;17179;48.022;7.858;2022-09-02T04:19:02;98598.16;;;14.52;48.72
30383;BME280;17179;48.022;7.858;2022-09-02T04:21:30;98599.53;;;14.49;49.24
30383;BME280;17179;48.022;7.858;2022-09-02T04:23:56;98605.25;;;14.47;48.94
30383;BME280;17179;48.022;7.858;2022-09-02T04:26:22;98596.84;;;14.44;48.76
30383;BME280;17179;48.022;7.858;2022-09-02T04:28:48;98605.31;;;14.42;49.14
30383;BME280;17179;48.022;7.858;2022-09-02T04:31:16;98602.06;;;14.40;49.04
30383;BME280;17179;48.022;7.858;2022-09-02T04:33:43;98601.81;;;14.36;48.94
30383;BME280;17179;48.022;7.858;2022-09-02T04:36:11;98599.34;;;14.35;49.02
30383;BME280;17179;48.022;7.858;2022-09-02T04:38:37;98607.81;;;14.28;48.90
30383;BME280;17179;48.022;7.858;2022-09-02T04:41:13;98605.09;;;14.28;49.11
30383;BME280;17179;48.022;7.858;2022-09-02T04:43:39;98597.53;;;14.20;49.39
30383;BME280;17179;48.022;7.858;2022-09-02T04:46:09;98599.72;;;14.18;48.88
30383;BME280;17179;48.022;7.858;2022-09-02T04:48:36;98597.00;;;14.12;49.31
30383;BME280;17179;48.022;7.858;2022-09-02T04:51:04;98601.38;;;14.08;48.45
30383;BME280;17179;48.022;7.858;2022-09-02T04:53:29;98603.00;;;14.04;49.01
30383;BME280;17179;48.022;7.858;2022-09-02T04:55:55;98602.47;;;14.02;47.98
30383;BME280;17179;48.022;7.858;2022-09-02T04:58:20;98598.44;;;13.99;49.53
30383;BME280;17179;48.022;7.858;2022-09-02T05:00:45;98596.00;;;13.98;49.50
30383;BME280;17179;48.022;7.858;2022-09-02T05:03:11;98606.34;;;13.96;49.03
30383;BME280;17179;48.022;7.858;2022-09-02T05:05:37;98603.06;;;13.94;49.34
30383;BME280;17179;48.022;7.858;2022-09-02T05:08:03;98599.53;;;13.93;49.00
30383;BME280;17179;48.022;7.858;2022-09-02T05:10:29;98599.81;;;13.92;49.47
30383;BME280;17179;48.022;7.858;2022-09-02T05:12:56;98599.28;;;13.89;49.16
30383;BME280;17179;48.022;7.858;2022-09-02T05:15:22;98597.66;;;13.88;49.36
30383;BME280;17179;48.022;7.858;2022-09-02T05:17:47;98605.81;;;13.88;49.45
30383;BME280;17179;48.022;7.858;2022-09-02T05:20:12;98608.81;;;13.87;50.73
30383;BME280;17179;48.022;7.858;2022-09-02T05:22:38;98605.81;;;13.88;50.09
30383;BME280;17179;48.022;7.858;2022-09-02T05:25:04;98602.00;;;13.89;49.95
30383;BME280;17179;48.022;7.858;2022-09-02T05:27:31;98605.25;;;13.92;50.62
30383;BME280;17179;48.022;7.858;2022-09-02T05:29:57;98603.06;;;13.94;50.37
30383;BME280;17179;48.022;7.858;2022-09-02T05:32:26;98604.69;;;13.95;50.03
30383;BME280;17179;48.022;7.858;2022-09-02T05:34:52;98602.50;;;13.97;50.73
30383;BME280;17179;48.022;7.858;2022-09-02T05:37:18;98589.75;;;13.97;50.53
30383;BME280;17179;48.022;7.858;2022-09-02T05:39:43;98601.16;;;13.99;50.36
30383;BME280;17179;48.022;7.858;2022-09-02T05:42:09;98597.03;;;14.02;50.76
30383;BME280;17179;48.022;7.858;2022-09-02T05:44:35;98597.56;;;14.04;50.01
30383;BME280;17179;48.022;7.858;2022-09-02T05:47:00;98609.00;;;14.06;50.96
30383;BME280;17179;48.022;7.858;2022-09-02T05:49:26;98608.97;;;14.11;51.31
30383;BME280;17179;48.022;7.858;2022-09-02T05:51:56;98619.56;;;14.18;50.98
30383;BME280;17179;48.022;7.858;2022-09-02T05:54:28;98620.66;;;14.22;51.26
30383;BME280;17179;48.022;7.858;2022-09-02T05:56:56;98607.56;;;14.24;49.89
30383;BME280;17179;48.022;7.858;2022-09-02T05:59:24;98609.72;;;14.28;51.42
30383;BME280;17179;48.022;7.858;2022-09-02T06:01:51;98609.19;;;14.31;51.95
30383;BME280;17179;48.022;7.858;2022-09-02T06:04:18;98620.84;;;14.36;50.89
30383;BME280;17179;48.022;7.858;2022-09-02T06:06:44;98614.84;;;14.40;50.32
30383;BME280;17179;48.022;7.858;2022-09-02T06:09:12;98612.59;;;14.47;51.56
30383;BME280;17179;48.022;7.858;2022-09-02T06:11:39;98618.81;;;14.53;52.63
30383;BME280;17179;48.022;7.858;2022-09-02T06:14:10;98619.31;;;14.60;52.30
30383;BME280;17179;48.022;7.858;2022-09-02T06:16:37;98624.44;;;14.67;52.44
30383;BME280;17179;48.022;7.858;2022-09-02T06:19:03;98614.63;;;14.71;51.37
30383;BME280;17179;48.022;7.858;2022-09-02T06:21:29;98622.47;;;14.78;51.69
30383;BME280;17179;48.022;7.858;2022-09-02T06:23:55;98608.81;;;14.83;51.81
30383;BME280;17179;48.022;7.858;2022-09-02T06:26:20;98608.50;;;14.90;51.35
30383;BME280;17179;48.022;7.858;2022-09-02T06:28:46;98608.97;;;14.97;51.52
30383;BME280;17179;48.022;7.858;2022-09-02T06:31:13;98610.25;;;15.05;51.03
30383;BME280;17179;48.022;7.858;2022-09-02T06:33:40;98602.88;;;15.11;51.77
30383;BME280;17179;48.022;7.858;2022-09-02T06:36:11;98606.91;;;15.18;51.11
30383;BME280;17179;48.022;7.858;2022-09-02T06:38:38;98606.28;;;15.27;52.00
30383;BME280;17179;48.022;7.858;2022-09-02T06:41:04;98603.72;;;15.36;51.91
30383;BME280;17179;48.022;7.858;2022-09-02T06:43:30;98602.81;;;15.46;50.69
30383;BME280;17179;48.022;7.858;2022-09-02T06:45:55;98606.81;;;15.53;50.35
30383;BME280;17179;48.022;7.858;2022-09-02T06:48:21;98605.09;;;15.63;49.77
30383;BME280;17179;48.022;7.858;2022-09-02T06:50:46;98599.00;;;15.71;49.98
30383;BME280;17179;48.022;7.858;2022-09-02T06:53:12;98602.69;;;15.81;49.76
30383;BME280;17179;48.022;7.858;2022-09-02T06:55:41;98605.59;;;15.89;50.36
30383;BME280;17179;48.022;7.858;2022-09-02T06:58:07;98598.41;;;15.99;49.63
30383;BME280;17179;48.022;7.858;2022-09-02T07:00:32;98590.38;;;16.08;48.73
30383;BME280;17179;48.022;7.858;2022-09-02T07:03:00;98596.28;;;16.15;47.29
30383;BME280;17179;48.022;7.858;2022-09-02T07:06:06;98591.72;;;16.30;46.81
30383;BME280;17179;48.022;7.858;2022-09-02T07:08:40;98582.03;;;16.37;47.32
30383;BME280;17179;48.022;7.858;2022-09-02T07:11:14;98582.78;;;16.43;45.60
30383;BME280;17179;48.022;7.858;2022-09-02T07:13:39;98581.59;;;16.49;46.07
30383;BME280;17179;48.022;7.858;2022-09-02T07:16:05;98588.00;;;16.59;46.39
30383;BME280;17179;48.022;7.858;2022-09-02T07:18:32;98587.63;;;16.66;45.32
30383;BME280;17179;48.022;7.858;2022-09-02T07:20:59;98590.78;;;16.73;45.01
30383;BME280;17179;48.022;7.858;2022-09-02T07:23:25;98582.22;;;16.80;45.45
30383;BME280;17179;48.022;7.858;2022-09-02T07:25:50;98582.66;;;16.87;44.78
30383;BME280;17179;48.022;7.858;2022-09-02T07:28:15;98582.28;;;16.94;45.24
30383;BME280;17179;48.022;7.858;2022-09-02T07:30:42;98580.28;;;17.00;45.05
30383;BME280;17179;48.022;7.858;2022-09-02T07:33:08;98585.34;;;17.06;44.64
30383;BME280;17179;48.022;7.858;2022-09-02T07:35:34;98585.75;;;17.14;44.57
30383;BME280;17179;48.022;7.858;2022-09-02T07:38:01;98584.56;;;17.20;44.51
30383;BME280;17179;48.022;7.858;2022-09-02T07:40:27;98577.06;;;17.26;44.74
30383;BME280;17179;48.022;7.858;2022-09-02T07:42:54;98595.00;;;17.32;44.97
30383;BME280;17179;48.022;7.858;2022-09-02T07:45:19;98587.19;;;17.39;44.93
30383;BME280;17179;48.022;7.858;2022-09-02T07:47:45;98585.19;;;17.45;45.55
30383;BME280;17179;48.022;7.858;2022-09-02T07:50:10;98595.72;;;17.52;45.10
30383;BME280;17179;48.022;7.858;2022-09-02T07:52:37;98589.03;;;17.58;44.67
30383;BME280;17179;48.022;7.858;2022-09-02T07:55:03;98597.16;;;17.63;44.86
30383;BME280;17179;48.022;7.858;2022-09-02T07:57:30;98590.47;;;17.70;45.07
30383;BME280;17179;48.022;7.858;2022-09-02T07:59:56;98594.72;;;17.76;44.77
30383;BME280;17179;48.022;7.858;2022-09-02T08:02:21;98591.88;;;17.81;44.54
30383;BME280;17179;48.022;7.858;2022-09-02T08:04:46;98598.88;;;17.87;44.71
30383;BME280;17179;48.022;7.858;2022-09-02T08:07:12;98602.63;;;17.92;44.86
30383;BME280;17179;48.022;7.858;2022-09-02T08:09:37;98598.34;;;17.99;44.31
30383;BME280;17179;48.022;7.858;2022-09-02T08:12:03;98591.16;;;18.04;44.08
30383;BME280;17179;48.022;7.858;2022-09-02T08:14:29;98591.84;;;18.09;45.11
30383;BME280;17179;48.022;7.858;2022-09-02T08:16:55;98588.38;;;18.18;44.90
30383;BME280;17179;48.022;7.858;2022-09-02T08:19:21;98591.81;;;18.23;43.22
30383;BME280;17179;48.022;7.858;2022-09-02T08:21:47;98589.75;;;18.29;42.89
30383;BME280;17179;48.022;7.858;2022-09-02T08:24:12;98590.94;;;18.37;43.73
30383;BME280;17179;48.022;7.858;2022-09-02T08:26:38;98588.91;;;18.43;42.94
30383;BME280;17179;48.022;7.858;2022-09-02T08:29:04;98586.88;;;18.48;43.25
30383;BME280;17179;48.022;7.858;2022-09-02T08:31:31;98584.84;;;18.54;43.59
30383;BME280;17179;48.022;7.858;2022-09-02T08:33:57;98583.59;;;18.60;42.76
30383;BME280;17179;48.022;7.858;2022-09-02T08:36:23;98584.28;;;18.66;42.18
30383;BME280;17179;48.022;7.858;2022-09-02T08:38:48;98582.22;;;18.72;42.06
30383;BME280;17179;48.022;7.858;2022-09-02T08:41:25;98579.25;;;18.82;42.25
30383;BME280;17179;48.022;7.858;2022-09-02T08:43:57;98580.25;;;18.87;42.38
30383;BME280;17179;48.022;7.858;2022-09-02T08:46:25;98582.34;;;18.90;41.90
30383;BME280;17179;48.022;7.858;2022-09-02T08:48:51;98572.88;;;18.96;41.42
30383;BME280;17179;48.022;7.858;2022-09-02T08:51:26;98574.84;;;19.04;41.10
30383;BME280;17179;48.022;7.858;2022-09-02T08:54:08;98579.88;;;19.11;40.17
30383;BME280;17179;48.022;7.858;2022-09-02T08:56:34;98584.22;;;19.12;40.17
30383;BME280;17179;48.022;7.858;2022-09-02T08:59:00;98581.38;;;19.17;39.78
30383;BME280;17179;48.022;7.858;2022-09-02T09:04:39;98581.94;;;19.28;40.04
30383;BME280;17179;48.022;7.858;2022-09-02T09:07:56;98575.84;;;19.40;41.11
30383;BME280;17179;48.022;7.858;2022-09-02T09:10:42;98573.78;;;19.46;39.88
30383;BME280;17179;48.022;7.858;2022-09-02T09:13:29;98575.72;;;19.54;40.56
30383;BME280;17179;48.022;7.858;2022-09-02T09:19:00;98561.56;;;19.70;39.94
30383;BME280;17179;48.022;7.858;2022-09-02T09:21:29;98559.16;;;19.77;39.71
30383;BME280;17179;48.022;7.858;2022-09-02T09:23:56;98563.72;;;19.82;38.36
30383;BME280;17179;48.022;7.858;2022-09-02T09:26:32;98554.88;;;19.94;38.83
30383;BME280;17179;48.022;7.858;2022-09-02T09:29:03;98553.56;;;20.00;38.55
30383;BME280;17179;48.022;7.858;2022-09-02T09:31:30;98545.22;;;20.06;38.05
30383;BME280;17179;48.022;7.858;2022-09-02T09:34:01;98544.88;;;20.16;38.74
30383;BME280;17179;48.022;7.858;2022-09-02T09:39:30;98539.38;;;20.34;38.26
30383;BME280;17179;48.022;7.858;2022-09-02T09:42:01;98539.88;;;20.36;36.04
30383;BME280;17179;48.022;7.858;2022-09-02T09:44:46;98540.19;;;20.43;35.56
30383;BME280;17179;48.022;7.858;2022-09-02T09:47:20;98538.38;;;20.56;37.00
30383;BME280;17179;48.022;7.858;2022-09-02T09:49:49;98529.19;;;20.61;37.01
30383;BME280;17179;48.022;7.858;2022-09-02T09:52:28;98530.13;;;20.74;38.25
30383;BME280;17179;48.022;7.858;2022-09-02T09:55:19;98533.34;;;20.85;37.64
30383;BME280;17179;48.022;7.858;2022-09-02T09:57:47;98526.88;;;20.90;36.49
30383;BME280;17179;48.022;7.858;2022-09-02T10:00:19;98521.16;;;21.04;35.87
30383;BME280;17179;48.022;7.858;2022-09-02T10:02:50;98527.09;;;21.15;36.60
30383;BME280;17179;48.022;7.858;2022-09-02T10:07:59;98514.53;;;21.35;35.65
30383;BME280;17179;48.022;7.858;2022-09-02T10:10:27;98514.53;;;21.44;34.51
30383;BME280;17179;48.022;7.858;2022-09-02T10:12:57;98514.13;;;21.54;33.87
30383;BME280;17179;48.022;7.858;2022-09-02T10:15:35;98517.47;;;21.69;36.05
30383;BME280;17179;48.022;7.858;2022-09-02T10:20:47;98519.09;;;21.91;34.69
30383;BME280;17179;48.022;7.858;2022-09-02T10:26:34;98513.88;;;22.20;35.73
30383;BME280;17179;48.022;7.858;2022-09-02T10:32:18;98513.97;;;22.45;34.50
30383;BME280;17179;48.022;7.858;2022-09-02T10:35:06;98511.91;;;22.55;33.11
30383;BME280;17179;48.022;7.858;2022-09-02T10:38:03;98508.41;;;22.67;34.01
30383;BME280;17179;48.022;7.858;2022-09-02T10:40:58;98510.41;;;22.79;34.98
30383;BME280;17179;48.022;7.858;2022-09-02T10:46:34;98507.22;;;23.02;33.85
30383;BME280;17179;48.022;7.858;2022-09-02T10:49:13;98502.41;;;23.11;32.93
30383;BME280;17179;48.022;7.858;2022-09-02T10:51:48;98491.34;;;23.24;32.87
30383;BME280;17179;48.022;7.858;2022-09-02T10:54:40;98492.88;;;23.46;33.34
30383;BME280;17179;48.022;7.858;2022-09-02T10:57:18;98494.13;;;23.61;32.96
30383;BME280;17179;48.022;7.858;2022-09-02T11:03:13;98486.09;;;23.97;33.43
30383;BME280;17179;48.022;7.858;2022-09-02T11:05:50;98485.84;;;24.15;31.59
30383;BME280;17179;48.022;7.858;2022-09-02T11:11:07;98476.13;;;24.50;31.04
30383;BME280;17179;48.022;7.858;2022-09-02T11:19:15;98471.34;;;25.12;32.30
30383;BME280;17179;48.022;7.858;2022-09-02T11:25:07;98478.31;;;25.58;31.29
30383;BME280;17179;48.022;7.858;2022-09-02T11:30:23;98466.47;;;25.97;27.96
30383;BME280;17179;48.022;7.858;2022-09-02T11:33:14;98476.16;;;26.26;29.96
30383;BME280;17179;48.022;7.858;2022-09-02T11:35:42;98481.28;;;26.44;27.62
30383;BME280;17179;48.022;7.858;2022-09-02T11:43:48;98464.97;;;27.10;27.70
30383;BME280;17179;48.022;7.858;2022-09-02T11:49:20;98471.25;;;27.61;28.15
30383;BME280;17179;48.022;7.858;2022-09-02T11:52:04;98467.22;;;27.89;27.92
30383;BME280;17179;48.022;7.858;2022-09-02T11:54:36;98462.75;;;28.11;26.12
30383;BME280;17179;48.022;7.858;2022-09-02T11:57:04;98455.09;;;28.39;26.46
30383;BME280;17179;48.022;7.858;2022-09-02T12:02:43;98451.34;;;29.07;27.38
30383;BME280;17179;48.022;7.858;2022-09-02T12:13:38;98438.34;;;30.16;26.01
30383;BME280;17179;48.022;7.858;2022-09-02T12:21:25;98429.69;;;30.79;22.56
30383;BME280;17179;48.022;7.858;2022-09-02T12:31:45;98411.03;;;31.95;22.20
30383;BME280;17179;48.022;7.858;2022-09-02T12:36:54;98407.09;;;32.50;20.96
30383;BME280;17179;48.022;7.858;2022-09-02T12:42:20;98394.03;;;33.20;23.29
30383;BME280;17179;48.022;7.858;2022-09-02T12:55:17;98381.69;;;34.63;20.42
30383;BME280;17179;48.022;7.858;2022-09-02T12:57:48;98378.03;;;34.90;19.95
30383;BME280;17179;48.022;7.858;2022-09-02T13:06:03;98362.03;;;35.69;17.47
30383;BME280;17179;48.022;7.858;2022-09-02T13:19:53;98357.31;;;36.82;17.64
30383;BME280;17179;48.022;7.858;2022-09-02T13:22:51;98359.25;;;37.15;18.57
30383;BME280;17179;48.022;7.858;2022-09-02T13:28:42;98349.09;;;37.61;18.13
30383;BME280;17179;48.022;7.858;2022-09-02T13:31:19;98349.03;;;37.78;16.37
30383;BME280;17179;48.022;7.858;2022-09-02T13:34:19;98345.53;;;37.86;17.07
30383;BME280;17179;48.022;7.858;2022-09-02T13:36:45;98335.81;;;37.87;16.18
30383;BME280;17179;48.022;7.858;2022-09-02T13:39:23;98321.81;;;37.97;17.27
30383;BME280;17179;48.022;7.858;2022-09-02T13:41:50;98324.31;;;37.95;16.47
30383;BME280;17179;48.022;7.858;2022-09-02T13:44:35;98314.81;;;38.02;17.48
30383;BME280;17179;48.022;7.858;2022-09-02T13:47:12;98319.91;;;37.94;15.45
30383;BME280;17179;48.022;7.858;2022-09-02T13:49:45;98324.88;;;37.90;15.02
30383;BME280;17179;48.022;7.858;2022-09-02T13:52:13;98328.59;;;37.73;15.08
30383;BME280;17179;48.022;7.858;2022-09-02T13:54:43;98320.44;;;37.62;15.92
30383;BME280;17179;48.022;7.858;2022-09-02T13:57:12;98322.03;;;37.50;15.60
30383;BME280;17179;48.022;7.858;2022-09-02T13:59:50;98319.34;;;37.47;17.44
30383;BME280;17179;48.022;7.858;2022-09-02T14:04:42;98324.31;;;37.26;16.21
30383;BME280;17179;48.022;7.858;2022-09-02T14:07:08;98317.13;;;37.25;16.66
30383;BME280;17179;48.022;7.858;2022-09-02T14:09:34;98317.22;;;37.21;16.82
30383;BME280;17179;48.022;7.858;2022-09-02T14:12:00;98317.91;;;37.25;16.60
30383;BME280;17179;48.022;7.858;2022-09-02T14:14:27;98312.41;;;37.22;15.79
30383;BME280;17179;48.022;7.858;2022-09-02T14:17:20;98322.19;;;37.30;17.73
30383;BME280;17179;48.022;7.858;2022-09-02T14:19:46;98311.25;;;37.19;15.89
30383;BME280;17179;48.022;7.858;2022-09-02T14:22:30;98315.41;;;37.14;16.83
30383;BME280;17179;48.022;7.858;2022-09-02T14:24:55;98316.13;;;36.89;15.93
30383;BME280;17179;48.022;7.858;2022-09-02T14:27:22;98322.03;;;36.78;16.75
30383;BME280;17179;48.022;7.858;2022-09-02T14:29:54;98319.53;;;36.67;16.83
30383;BME280;17179;48.022;7.858;2022-09-02T14:32:23;98325.78;;;36.41;16.73
30383;BME280;17179;48.022;7.858;2022-09-02T14:37:48;98320.63;;;36.23;17.72
30383;BME280;17179;48.022;7.858;2022-09-02T14:40:14;98313.94;;;36.00;16.40
30383;BME280;17179;48.022;7.858;2022-09-02T14:42:48;98310.50;;;35.92;17.67
30383;BME280;17179;48.022;7.858;2022-09-02T14:45:30;98318.56;;;35.73;16.90
30383;BME280;17179;48.022;7.858;2022-09-02T14:47:58;98319.44;;;35.70;18.69
30383;BME280;17179;48.022;7.858;2022-09-02T14:50:32;98316.75;;;35.46;17.68
30383;BME280;17179;48.022;7.858;2022-09-02T14:53:06;98316.06;;;35.22;17.45
30383;BME280;17179;48.022;7.858;2022-09-02T14:55:42;98320.84;;;35.01;17.56
30383;BME280;17179;48.022;7.858;2022-09-02T14:58:09;98323.91;;;34.66;17.58
30383;BME280;17179;48.022;7.858;2022-09-02T15:00:34;98319.19;;;34.39;17.88
30383;BME280;17179;48.022;7.858;2022-09-02T15:03:03;98328.09;;;34.06;18.60
30383;BME280;17179;48.022;7.858;2022-09-02T15:05:29;98325.38;;;33.71;18.96
30383;BME280;17179;48.022;7.858;2022-09-02T15:07:54;98327.47;;;33.35;18.50
30383;BME280;17179;48.022;7.858;2022-09-02T15:10:21;98322.28;;;32.99;19.33